Aviation Digital Data Service (ADDS)

Output produced by METARs form (0328 UTC 22 January 2020)
found at http://aviationweather.gov/metar/data/
 
METAR text: KCHD 220247Z 21004KT 07SM SCT030 BKN040 13/12 A3012
Conditions at: KCHD (CHANDLER , AZ, US) observed 0247 UTC 22 January 2020
Temperature: 13.0°C (55°F)
Dewpoint: 12.0°C (54°F) [RH = 94%]
Pressure (altimeter): 30.12 inches Hg (1020.1 mb)
Winds: from the SSW (210 degrees) at 5 MPH (4 knots; 2.1 m/s)
Visibility: 7 miles (11 km)
Ceiling: 4000 feet AGL
Clouds: scattered clouds at 3000 feet AGL
broken clouds at 4000 feet AGL
Weather: no significant weather observed at this time

METAR text: KCHD 220147Z 18005KT 07SM SCT020 BKN030 13/12 A3010
Conditions at: KCHD (CHANDLER , AZ, US) observed 0147 UTC 22 January 2020
Temperature: 13.0°C (55°F)
Dewpoint: 12.0°C (54°F) [RH = 94%]
Pressure (altimeter): 30.10 inches Hg (1019.4 mb)
Winds: from the S (180 degrees) at 6 MPH (5 knots; 2.6 m/s)
Visibility: 7 miles (11 km)
Ceiling: 3000 feet AGL
Clouds: scattered clouds at 2000 feet AGL
broken clouds at 3000 feet AGL
Weather: no significant weather observed at this time

METAR text: KCHD 220047Z 21005KT 07SM SCT015 BKN020 OVC030 13/12 A3009
Conditions at: KCHD (CHANDLER , AZ, US) observed 0047 UTC 22 January 2020
Temperature: 13.0°C (55°F)
Dewpoint: 12.0°C (54°F) [RH = 94%]
Pressure (altimeter): 30.09 inches Hg (1019.0 mb)
Winds: from the SSW (210 degrees) at 6 MPH (5 knots; 2.6 m/s)
Visibility: 7 miles (11 km)
Ceiling: 2000 feet AGL
Clouds: scattered clouds at 1500 feet AGL
broken clouds at 2000 feet AGL
overcast cloud deck at 3000 feet AGL
Weather: no significant weather observed at this time

METAR text: KCHD 212347Z 18005KT 07SM SCT015 BKN020 OVC030 13/12 A3007
Conditions at: KCHD (CHANDLER , AZ, US) observed 2347 UTC 21 January 2020
Temperature: 13.0°C (55°F)
Dewpoint: 12.0°C (54°F) [RH = 94%]
Pressure (altimeter): 30.07 inches Hg (1018.4 mb)
Winds: from the S (180 degrees) at 6 MPH (5 knots; 2.6 m/s)
Visibility: 7 miles (11 km)
Ceiling: 2000 feet AGL
Clouds: scattered clouds at 1500 feet AGL
broken clouds at 2000 feet AGL
overcast cloud deck at 3000 feet AGL
Weather: no significant weather observed at this time

METAR text: KCHD 212247Z 00000KT 07SM SCT015 BKN020 OVC030 13/11 A3008
Conditions at: KCHD (CHANDLER , AZ, US) observed 2247 UTC 21 January 2020
Temperature: 13.0°C (55°F)
Dewpoint: 11.0°C (52°F) [RH = 88%]
Pressure (altimeter): 30.08 inches Hg (1018.7 mb)
Winds: calm
Visibility: 7 miles (11 km)
Ceiling: 2000 feet AGL
Clouds: scattered clouds at 1500 feet AGL
broken clouds at 2000 feet AGL
overcast cloud deck at 3000 feet AGL
Weather: no significant weather observed at this time

METAR text: KCHD 212147Z 25005KT 07SM BKN030 OVC050 13/10 A3007
Conditions at: KCHD (CHANDLER , AZ, US) observed 2147 UTC 21 January 2020
Temperature: 13.0°C (55°F)
Dewpoint: 10.0°C (50°F) [RH = 82%]
Pressure (altimeter): 30.07 inches Hg (1018.4 mb)
Winds: from the WSW (250 degrees) at 6 MPH (5 knots; 2.6 m/s)
Visibility: 7 miles (11 km)
Ceiling: 3000 feet AGL
Clouds: broken clouds at 3000 feet AGL
overcast cloud deck at 5000 feet AGL
Weather: no significant weather observed at this time

METAR text: KCHD 212047Z 27005KT 07SM BKN030 OVC050 14/10 A3008
Conditions at: KCHD (CHANDLER , AZ, US) observed 2047 UTC 21 January 2020
Temperature: 14.0°C (57°F)
Dewpoint: 10.0°C (50°F) [RH = 77%]
Pressure (altimeter): 30.08 inches Hg (1018.7 mb)
Winds: from the W (270 degrees) at 6 MPH (5 knots; 2.6 m/s)
Visibility: 7 miles (11 km)
Ceiling: 3000 feet AGL
Clouds: broken clouds at 3000 feet AGL
overcast cloud deck at 5000 feet AGL
Weather: no significant weather observed at this time

METAR text: KCHD 211947Z 00000KT 10SM BKN050 OVC100 14/10 A3010
Conditions at: KCHD (CHANDLER , AZ, US) observed 1947 UTC 21 January 2020
Temperature: 14.0°C (57°F)
Dewpoint: 10.0°C (50°F) [RH = 77%]
Pressure (altimeter): 30.10 inches Hg (1019.4 mb)
Winds: calm
Visibility: 10 or more miles (16+ km)
Ceiling: 5000 feet AGL
Clouds: broken clouds at 5000 feet AGL
overcast cloud deck at 10000 feet AGL
Weather: no significant weather observed at this time

METAR text: KCHD 211847Z VRB04KT 10SM SCT 040 OVC120 13/10 A3012
Conditions at: KCHD (CHANDLER , AZ, US) observed 1847 UTC 21 January 2020
Temperature: 13.0°C (55°F)
Dewpoint: 10.0°C (50°F) [RH = 82%]
Pressure (altimeter): 30.12 inches Hg (1020.1 mb)
Winds: variable direction winds at 5 MPH (4 knots; 2.1 m/s)
Visibility: 10 or more miles (16+ km)
Ceiling: 12000 feet AGL
Clouds: scattered clouds at 4000 feet AGL
overcast cloud deck at 12000 feet AGL
Weather: no significant weather observed at this time

METAR text: KCHD 211747Z 27003KT 10SM SCT038 SCT 048 12/10 A3014
Conditions at: KCHD (CHANDLER , AZ, US) observed 1747 UTC 21 January 2020
Temperature: 12.0°C (54°F)
Dewpoint: 10.0°C (50°F) [RH = 88%]
Pressure (altimeter): 30.14 inches Hg (1020.7 mb)
Winds: from the W (270 degrees) at 3 MPH (3 knots; 1.5 m/s)
Visibility: 10 or more miles (16+ km)
Ceiling: at least 12,000 feet AGL
Clouds: scattered clouds at 3800 feet AGL
scattered clouds at 4800 feet AGL
Weather: no significant weather observed at this time

METAR text: KCHD 211647Z 21008KT 10SM SCT050 BKN080 OVC100 12/11 A3013
Conditions at: KCHD (CHANDLER , AZ, US) observed 1647 UTC 21 January 2020
Temperature: 12.0°C (54°F)
Dewpoint: 11.0°C (52°F) [RH = 94%]
Pressure (altimeter): 30.13 inches Hg (1020.4 mb)
Winds: from the SSW (210 degrees) at 9 MPH (8 knots; 4.1 m/s)
Visibility: 10 or more miles (16+ km)
Ceiling: 8000 feet AGL
Clouds: scattered clouds at 5000 feet AGL
broken clouds at 8000 feet AGL
overcast cloud deck at 10000 feet AGL
Weather: no significant weather observed at this time

METAR text: KCHD 211547Z 21008KT 10SM SCT050 BKN080 OVC100 12/10 A3012
Conditions at: KCHD (CHANDLER , AZ, US) observed 1547 UTC 21 January 2020
Temperature: 12.0°C (54°F)
Dewpoint: 10.0°C (50°F) [RH = 88%]
Pressure (altimeter): 30.12 inches Hg (1020.1 mb)
Winds: from the SSW (210 degrees) at 9 MPH (8 knots; 4.1 m/s)
Visibility: 10 or more miles (16+ km)
Ceiling: 8000 feet AGL
Clouds: scattered clouds at 5000 feet AGL
broken clouds at 8000 feet AGL
overcast cloud deck at 10000 feet AGL
Weather: no significant weather observed at this time